»·PEaware :: N907SL KSNA-KSNA

N907SL :: KSNA-KSNA

FLIGHT INFORMATION

Flight Status: Arrived
Operator: Privately registered:
United States
More flights under this callsign
Pilot: Anonymous 27925 (27925)
Aircraft: CESSNA 172 SKYHAWK
(C172)
More flights by this aircraft type
Origin: KSNA John Wayne-Orange Co
United States
Destination: KSNA John Wayne-Orange Co
United States
More flights between these airports :: More routes between these airports
Route: +
File this flight plan on PilotEdge
Remarks:
Altitude:
(Current/Filed)
0ft
Speed:
(Current/Filed)
0kts
Departed: 08-Feb-20 10:08 PM
Arrived: 08-Feb-20 10:53 PM
Distance/Time
Traveled:
1nm/0:45
Distance/Time
To Go:
Arrived

Flight Plot

Page will automatically refresh every two minutes.


Map Options




Map Legend


Flown Route
Filed Route
Departure Airport
Arrival Airport
Navaid (VOR, NDB)
Fix

Horizontal Profiles

Position Reports

Time Latitude Longitude Heading Altitude Ground
Speed
08-Feb-20 21:55 33.667271 -117.870943 41 60ft 0kts
08-Feb-20 21:56 33.667271 -117.870943 41 60ft 0kts
08-Feb-20 21:57 33.667766 -117.871311 309 60ft 11kts
08-Feb-20 21:58 33.667849 -117.871432 308 60ft 0kts
08-Feb-20 21:59 33.669752 -117.870279 40 60ft 17kts
08-Feb-20 22:00 33.673414 -117.867534 41 60ft 0kts
08-Feb-20 22:01 33.673413 -117.867535 42 60ft 0kts
08-Feb-20 22:02 33.673413 -117.867535 42 60ft 0kts
08-Feb-20 22:03 33.673413 -117.867535 42 60ft 0kts
08-Feb-20 22:04 33.676951 -117.865293 28 60ft 22kts
08-Feb-20 22:05 33.679996 -117.863621 295 60ft 0kts
08-Feb-20 22:06 33.679996 -117.863621 295 60ft 0kts
08-Feb-20 22:07 33.674272 -117.867798 204 152ft 80kts
08-Feb-20 22:08 33.657892 -117.864005 89 1238ft 77kts
08-Feb-20 22:09 33.658964 -117.838560 97 2161ft 70kts
08-Feb-20 22:10 33.656992 -117.813779 89 2470ft 78kts
08-Feb-20 22:11 33.656277 -117.786709 99 2737ft 84kts
08-Feb-20 22:12 33.649774 -117.759857 107 2280ft 82kts
08-Feb-20 22:13 33.643948 -117.733410 106 1977ft 80kts
08-Feb-20 22:14 33.634867 -117.708426 140 1808ft 84kts
08-Feb-20 22:15 33.615177 -117.694235 154 1703ft 81kts
08-Feb-20 22:16 33.612154 -117.669914 66 2176ft 104kts
08-Feb-20 22:17 33.622910 -117.637421 40 2962ft 101kts
08-Feb-20 22:18 33.637548 -117.650169 292 2979ft 90kts
08-Feb-20 22:19 33.637548 -117.650169 292 2979ft 90kts
08-Feb-20 22:20 33.637548 -117.650169 292 2979ft 90kts
08-Feb-20 22:21 33.637548 -117.650169 292 2979ft 90kts
08-Feb-20 22:22 33.637548 -117.650169 292 2979ft 90kts
08-Feb-20 22:23 33.637548 -117.650169 292 2979ft 90kts
08-Feb-20 22:24 33.637548 -117.650169 292 2979ft 90kts
08-Feb-20 22:25 33.637548 -117.650169 292 2979ft 90kts
08-Feb-20 22:26 33.637548 -117.650169 292 2979ft 90kts
08-Feb-20 22:27 33.637548 -117.650169 292 2979ft 90kts
08-Feb-20 22:28 33.637548 -117.650169 292 2979ft 90kts
08-Feb-20 22:29 33.637548 -117.650169 292 2979ft 90kts
08-Feb-20 22:30 33.637548 -117.650169 292 2979ft 90kts
08-Feb-20 22:31 33.637548 -117.650169 292 2979ft 90kts
08-Feb-20 22:33 33.637548 -117.650169 292 2979ft 90kts
08-Feb-20 22:34 33.637548 -117.650169 292 2979ft 90kts
08-Feb-20 22:35 33.637548 -117.650169 292 2979ft 90kts
08-Feb-20 22:36 33.637548 -117.650169 292 2979ft 90kts
08-Feb-20 22:37 33.637548 -117.650169 292 2979ft 90kts
08-Feb-20 22:38 33.637548 -117.650169 292 2979ft 90kts
08-Feb-20 22:39 33.637548 -117.650169 292 2979ft 90kts
08-Feb-20 22:40 33.637548 -117.650169 292 2979ft 90kts
08-Feb-20 22:41 33.637548 -117.650169 292 2979ft 90kts
08-Feb-20 22:42 33.627074 -117.666688 196 2952ft 91kts
08-Feb-20 22:43 33.621733 -117.674015 262 3077ft 96kts
08-Feb-20 22:44 33.620818 -117.685668 265 2945ft 93kts
08-Feb-20 22:45 33.615730 -117.716397 258 2957ft 93kts
08-Feb-20 22:46 33.611392 -117.747991 263 2954ft 97kts
08-Feb-20 22:47 33.611454 -117.780077 271 2999ft 95kts
08-Feb-20 22:48 33.616764 -117.811531 309 2811ft 96kts
08-Feb-20 22:49 33.638434 -117.830010 321 2209ft 97kts
08-Feb-20 22:50 33.660286 -117.848418 322 1221ft 94kts
08-Feb-20 22:51 33.680767 -117.847628 31 736ft 72kts
08-Feb-20 22:51 33.691505 -117.854932 264 638ft 56kts
08-Feb-20 22:53 33.677680 -117.865708 207 60ft 22kts
08-Feb-20 22:54 33.675904 -117.865949 207 60ft 21kts
08-Feb-20 22:54 33.672349 -117.867978 206 60ft 20kts
08-Feb-20 22:56 33.667503 -117.871109 145 60ft 6kts

Navigation Log

Ident Type
Flight plan parsing failed, navigation log unavailable